Terminal Aerodrome Forecast
Issued by NWS

Home | Current Version | Previous Version | Text Only | Print | Product List | Glossary On
Versions: 1 2 3 4 5 6 7 8 9 10 11 12 13 14
000
FTUS43 KUNR 290824 AAB
TAFGCC
TAF AMD
KGCC 290824Z 2908/3006 VRB05KT P6SM VCSH BKN090
      TEMPO 2908/2910 20012G20KT P6SM -TSRA OVC060CB
     FM291000 VRB05KT P6SM SCT100=

USA.gov is the U.S. government's official web portal to all federal, state and local government web resources and services.